createdAt,value
2023-05-09T00:00:12.050Z,47.95
2023-05-09T00:03:02.567Z,42.95
2023-05-09T00:05:30.635Z,52.10
2023-05-09T00:07:58.382Z,49.17
2023-05-09T00:10:27.655Z,47.47
2023-05-09T00:12:56.101Z,48.10
2023-05-09T00:15:26.255Z,56.33
2023-05-09T00:17:54.758Z,61.97
2023-05-09T00:20:23.839Z,70.90
2023-05-09T00:22:51.858Z,59.55
2023-05-09T00:25:20.133Z,48.22
2023-05-09T00:27:47.495Z,47.53
2023-05-09T00:30:15.637Z,46.35
2023-05-09T00:32:43.406Z,50.20
2023-05-09T00:35:11.444Z,53.75
2023-05-09T00:37:38.960Z,46.25
2023-05-09T00:40:07.779Z,46.20
2023-05-09T00:42:36.278Z,48.42
2023-05-09T00:45:04.780Z,62.05
2023-05-09T00:47:34.828Z,67.85
2023-05-09T00:50:03.134Z,65.63
2023-05-09T00:52:31.415Z,62.67
2023-05-09T00:55:00.754Z,71.40
2023-05-09T00:57:29.203Z,68.88
2023-05-09T00:59:57.995Z,62.28
2023-05-09T01:02:26.415Z,61.33
2023-05-09T01:04:55.178Z,52.47
2023-05-09T01:07:39.585Z,53.15
2023-05-09T01:10:45.897Z,53.50
2023-05-09T01:13:24.847Z,51.60
2023-05-09T01:15:56.095Z,51.70
2023-05-09T01:18:35.440Z,49.38
2023-05-09T01:21:08.958Z,48.67
2023-05-09T01:23:39.806Z,54.92
2023-05-09T01:26:30.440Z,55.72
2023-05-09T01:29:16.880Z,50.03
2023-05-09T01:31:45.856Z,47.28
2023-05-09T01:34:16.165Z,51.92
2023-05-09T01:36:45.768Z,47.53
2023-05-09T01:39:14.632Z,46.47
2023-05-09T01:41:42.571Z,51.67
2023-05-09T01:44:13.223Z,51.88
2023-05-09T01:46:43.561Z,47.50
2023-05-09T01:49:11.789Z,52.70
2023-05-09T01:51:43.820Z,51.08
2023-05-09T01:54:13.245Z,46.50
2023-05-09T01:56:42.801Z,53.38
2023-05-09T01:59:16.587Z,60.53
2023-05-09T02:01:46.154Z,58.13
2023-05-09T02:04:16.096Z,60.30
2023-05-09T02:06:45.410Z,60.35
2023-05-09T02:09:13.367Z,59.97
2023-05-09T02:11:43.866Z,59.05
2023-05-09T02:14:12.035Z,62.58
2023-05-09T02:16:41.427Z,73.28
2023-05-09T02:19:09.950Z,69.18
2023-05-09T02:21:38.568Z,71.78
2023-05-09T02:24:07.260Z,74.60
2023-05-09T02:26:37.136Z,64.75
2023-05-09T02:29:07.563Z,72.97
2023-05-09T02:31:36.881Z,63.20
2023-05-09T02:34:05.869Z,71.82
2023-05-09T02:36:36.673Z,64.50
2023-05-09T02:39:05.047Z,56.28
2023-05-09T02:41:33.257Z,60.13
2023-05-09T02:44:01.656Z,67.63
2023-05-09T02:46:31.689Z,66.03
2023-05-09T02:49:01.062Z,64.32
2023-05-09T02:51:29.842Z,58.75
2023-05-09T02:53:58.333Z,70.88
2023-05-09T02:56:27.022Z,64.72
2023-05-09T02:58:55.703Z,62.97
2023-05-09T03:01:24.526Z,68.25
2023-05-09T03:03:52.729Z,60.00
2023-05-09T03:06:22.648Z,75.47
2023-05-09T03:08:50.613Z,63.75
2023-05-09T03:11:19.194Z,68.97
2023-05-09T03:13:48.863Z,65.20
2023-05-09T03:16:18.614Z,58.85
2023-05-09T03:18:47.091Z,68.70
2023-05-09T03:21:15.061Z,67.55
2023-05-09T03:23:43.086Z,66.47
2023-05-09T03:26:11.395Z,68.60
2023-05-09T03:28:39.713Z,64.97
2023-05-09T03:31:08.413Z,68.80
2023-05-09T03:33:36.836Z,64.30
2023-05-09T03:36:06.062Z,79.85
2023-05-09T03:38:33.998Z,71.30
2023-05-09T03:41:02.579Z,86.50
2023-05-09T03:43:31.009Z,77.85
2023-05-09T03:45:59.427Z,69.50
2023-05-09T03:48:28.261Z,69.72
2023-05-09T03:50:57.409Z,61.17
2023-05-09T03:53:28.019Z,71.97
2023-05-09T03:55:56.924Z,67.93
2023-05-09T03:58:27.350Z,69.68
2023-05-09T04:00:56.592Z,69.13
2023-05-09T04:03:27.378Z,72.15
2023-05-09T04:05:56.544Z,77.22
2023-05-09T04:08:34.073Z,81.05
2023-05-09T04:11:05.047Z,75.00
2023-05-09T04:13:34.520Z,73.15
2023-05-09T04:16:07.904Z,74.55
2023-05-09T04:18:37.108Z,66.15
2023-05-09T04:21:05.239Z,72.35
2023-05-09T04:23:33.354Z,60.38
2023-05-09T04:26:01.397Z,59.75
2023-05-09T04:28:29.589Z,60.63
2023-05-09T04:30:59.007Z,57.28
2023-05-09T04:33:26.639Z,53.15
2023-05-09T04:36:01.631Z,49.22
2023-05-09T04:38:29.595Z,47.58
2023-05-09T04:40:58.958Z,46.55
2023-05-09T04:43:28.731Z,44.33
2023-05-09T04:45:58.682Z,41.30
2023-05-09T04:48:26.509Z,38.50
2023-05-09T04:50:55.081Z,40.47
2023-05-09T04:53:23.483Z,42.78
2023-05-09T04:55:54.117Z,40.03
2023-05-09T04:58:23.024Z,41.03
2023-05-09T05:00:51.839Z,40.38
2023-05-09T05:03:20.493Z,36.80
2023-05-09T05:05:50.323Z,33.90
2023-05-09T05:08:18.829Z,32.08
2023-05-09T05:10:49.766Z,32.58
2023-05-09T05:13:19.133Z,30.83
2023-05-09T05:15:52.006Z,34.50
2023-05-09T05:18:21.896Z,32.53
2023-05-09T05:20:51.332Z,35.63
2023-05-09T05:23:20.087Z,37.15
2023-05-09T05:25:51.721Z,33.65
2023-05-09T05:28:20.818Z,30.45
2023-05-09T05:30:50.055Z,34.60
2023-05-09T05:33:18.743Z,38.47
2023-05-09T05:35:47.591Z,32.65
2023-05-09T05:38:16.219Z,38.22
2023-05-09T05:40:49.776Z,31.15
2023-05-09T05:43:18.378Z,35.05
2023-05-09T05:45:46.948Z,27.77
2023-05-09T05:48:19.172Z,31.20
2023-05-09T05:50:49.019Z,32.70
2023-05-09T05:53:21.074Z,27.13
2023-05-09T05:55:53.660Z,22.92
2023-05-09T05:58:23.089Z,22.38
2023-05-09T06:00:53.756Z,18.27
2023-05-09T06:03:24.555Z,22.23
2023-05-09T06:06:04.063Z,31.23
2023-05-09T06:08:32.826Z,17.20
2023-05-09T06:11:02.004Z,15.18
2023-05-09T06:13:29.861Z,25.45
2023-05-09T06:16:18.513Z,20.77
2023-05-09T06:18:50.297Z,16.25
2023-05-09T06:21:18.548Z,15.40
2023-05-09T06:24:05.036Z,14.20
2023-05-09T06:26:36.811Z,14.77
2023-05-09T06:29:06.553Z,21.88
2023-05-09T06:31:39.277Z,39.42
2023-05-09T06:34:07.755Z,21.52
2023-05-09T06:36:36.702Z,23.80
2023-05-09T06:39:05.047Z,18.55
2023-05-09T06:41:35.101Z,24.50
2023-05-09T06:44:03.091Z,18.25
2023-05-09T06:46:31.837Z,21.33
2023-05-09T06:49:02.697Z,16.95
2023-05-09T06:51:31.590Z,13.88
2023-05-09T06:53:59.902Z,24.33
2023-05-09T06:56:28.560Z,16.45
2023-05-09T06:58:56.708Z,14.27
2023-05-09T07:01:25.424Z,16.48
2023-05-09T07:03:53.468Z,11.45
2023-05-09T07:06:22.236Z,13.07
2023-05-09T07:09:17.915Z,8.50
2023-05-09T07:11:46.616Z,12.20
2023-05-09T07:14:14.832Z,12.88
2023-05-09T07:16:43.338Z,6.70
2023-05-09T07:19:11.081Z,6.95
2023-05-09T07:21:39.574Z,9.15
2023-05-09T07:24:09.146Z,6.03
2023-05-09T07:26:38.191Z,5.07
2023-05-09T07:29:06.517Z,9.05
2023-05-09T07:31:37.219Z,5.30
2023-05-09T07:34:06.088Z,7.45
2023-05-09T07:36:35.612Z,6.03
2023-05-09T07:39:05.396Z,10.77
2023-05-09T07:41:34.033Z,8.75
2023-05-09T07:44:02.306Z,4.85
2023-05-09T07:46:30.731Z,4.25
2023-05-09T07:48:59.121Z,5.20
2023-05-09T07:51:27.922Z,3.35
2023-05-09T07:53:57.304Z,4.95
2023-05-09T07:56:27.118Z,1.77
2023-05-09T07:58:55.805Z,2.90
2023-05-09T08:01:24.415Z,2.85
2023-05-09T08:03:52.405Z,3.00
2023-05-09T08:06:21.059Z,5.28
2023-05-09T08:08:49.675Z,5.28
2023-05-09T08:11:18.394Z,9.55
2023-05-09T08:13:47.338Z,2.90
2023-05-09T08:16:17.851Z,2.47
2023-05-09T08:18:46.974Z,3.92
2023-05-09T08:21:15.727Z,3.03
2023-05-09T08:23:43.494Z,4.22
2023-05-09T08:26:11.607Z,5.15
2023-05-09T08:28:39.791Z,3.65
2023-05-09T08:31:07.805Z,1.90
2023-05-09T08:33:36.247Z,2.50
2023-05-09T08:36:05.513Z,3.92
2023-05-09T08:38:33.430Z,2.60
2023-05-09T08:41:02.453Z,8.00
2023-05-09T08:43:31.086Z,3.97
2023-05-09T08:46:00.948Z,2.95
2023-05-09T08:48:29.740Z,5.72
2023-05-09T08:50:58.368Z,5.55
2023-05-09T08:53:27.693Z,7.63
2023-05-09T08:55:56.694Z,2.45
2023-05-09T08:58:24.825Z,4.75
2023-05-09T09:00:54.423Z,4.53
2023-05-09T09:03:24.720Z,3.72
2023-05-09T09:05:55.025Z,5.55
2023-05-09T09:08:23.631Z,5.88
2023-05-09T09:10:52.521Z,3.45
2023-05-09T09:13:21.807Z,3.65
2023-05-09T09:15:52.289Z,4.40
2023-05-09T09:18:24.663Z,3.63
2023-05-09T09:20:58.640Z,3.80
2023-05-09T09:23:27.537Z,6.05
2023-05-09T09:26:05.236Z,2.50
2023-05-09T09:28:34.964Z,4.05
2023-05-09T09:31:29.074Z,4.43
2023-05-09T09:34:01.835Z,2.47
2023-05-09T09:36:32.929Z,2.53
2023-05-09T09:39:02.146Z,2.95
2023-05-09T09:41:39.316Z,3.35
2023-05-09T09:44:09.900Z,3.65
2023-05-09T09:46:51.124Z,4.10
2023-05-09T09:49:21.730Z,3.03
2023-05-09T09:51:52.723Z,5.80
2023-05-09T09:54:21.481Z,3.53
2023-05-09T09:56:53.598Z,4.00
2023-05-09T09:59:25.902Z,5.40
2023-05-09T10:04:23.243Z,2.47
2023-05-09T10:06:56.833Z,3.90
2023-05-09T10:09:25.826Z,4.13
2023-05-09T10:11:55.883Z,9.70
2023-05-09T10:14:26.160Z,3.92
2023-05-09T10:16:58.103Z,5.50
2023-05-09T10:19:27.900Z,3.22
2023-05-09T10:21:59.149Z,5.50
2023-05-09T10:24:29.731Z,3.92
2023-05-09T10:27:07.277Z,4.95
2023-05-09T10:29:37.026Z,6.68
2023-05-09T10:32:24.414Z,5.85
2023-05-09T10:34:55.442Z,4.68
2023-05-09T10:37:24.186Z,2.40
2023-05-09T10:39:54.012Z,5.60
2023-05-09T10:42:25.650Z,3.58
2023-05-09T10:44:54.319Z,19.10
2023-05-09T10:47:22.933Z,5.18
2023-05-09T10:49:50.781Z,2.88
2023-05-09T10:52:23.204Z,2.40
2023-05-09T10:55:02.663Z,3.08
2023-05-09T10:57:32.925Z,6.57
2023-05-09T11:00:02.053Z,5.80
2023-05-09T11:02:33.021Z,4.10
2023-05-09T11:05:22.106Z,3.60
2023-05-09T11:08:29.245Z,3.50
2023-05-09T11:11:03.352Z,4.65
2023-05-09T11:13:33.597Z,3.72
2023-05-09T11:16:02.067Z,3.60
2023-05-09T11:18:32.682Z,5.00
2023-05-09T11:21:08.516Z,18.63
2023-05-09T11:23:39.177Z,11.35
2023-05-09T11:26:08.785Z,7.55
2023-05-09T11:28:38.324Z,8.43
2023-05-09T11:31:24.805Z,2.92
2023-05-09T11:34:03.319Z,3.63
2023-05-09T11:36:35.911Z,5.15
2023-05-09T11:41:41.044Z,4.22
2023-05-09T11:44:21.577Z,13.57
2023-05-09T11:46:50.229Z,4.88
2023-05-09T11:49:19.989Z,2.97
2023-05-09T11:51:47.765Z,3.13
2023-05-09T11:54:16.001Z,3.00
2023-05-09T11:56:44.085Z,6.03
2023-05-09T11:59:14.962Z,4.63
2023-05-09T12:01:43.101Z,5.25
2023-05-09T12:04:12.358Z,2.88
2023-05-09T12:06:40.761Z,2.85
2023-05-09T12:09:10.693Z,5.22
2023-05-09T12:11:39.280Z,4.57
2023-05-09T12:14:07.938Z,7.40
2023-05-09T12:16:36.241Z,3.58
2023-05-09T12:19:05.255Z,3.25
2023-05-09T12:21:34.107Z,4.97
2023-05-09T12:24:02.824Z,2.60
2023-05-09T12:26:31.274Z,4.30
2023-05-09T12:29:00.155Z,2.83
2023-05-09T12:31:28.768Z,2.67
2023-05-09T12:33:57.720Z,5.25
2023-05-09T12:36:27.031Z,7.75
2023-05-09T12:38:56.805Z,3.53
2023-05-09T12:43:56.902Z,4.95
2023-05-09T12:46:26.284Z,4.15
2023-05-09T12:48:55.154Z,1.77
2023-05-09T12:51:24.003Z,5.57
2023-05-09T12:53:52.783Z,3.88
2023-05-09T12:56:23.683Z,2.38
2023-05-09T12:58:54.041Z,3.17
2023-05-09T13:01:27.902Z,3.00
2023-05-09T13:04:04.203Z,3.53
2023-05-09T13:06:36.619Z,4.25
2023-05-09T13:09:06.703Z,4.80
2023-05-09T13:11:36.037Z,2.63
2023-05-09T13:14:04.762Z,5.55
2023-05-09T13:16:32.758Z,3.65
2023-05-09T13:19:02.059Z,4.40
2023-05-09T13:21:30.136Z,8.50
2023-05-09T13:23:58.669Z,7.43
2023-05-09T13:26:28.306Z,6.13
2023-05-09T13:28:57.151Z,3.83
2023-05-09T13:31:25.751Z,3.90
2023-05-09T13:33:54.463Z,5.63
2023-05-09T13:36:23.410Z,3.03
2023-05-09T13:38:51.873Z,4.05
2023-05-09T13:41:23.160Z,3.03
2023-05-09T13:43:52.191Z,3.05
2023-05-09T13:46:20.378Z,2.65
2023-05-09T13:48:52.573Z,4.60
2023-05-09T13:51:22.150Z,6.30
2023-05-09T13:53:51.526Z,3.92
2023-05-09T13:56:20.445Z,2.83
2023-05-09T13:58:48.849Z,4.85
2023-05-09T14:01:16.736Z,7.95
2023-05-09T14:03:47.986Z,2.38
2023-05-09T14:06:17.465Z,8.45
2023-05-09T14:08:46.173Z,3.00
2023-05-09T14:11:14.201Z,2.55
2023-05-09T14:13:42.600Z,4.72
2023-05-09T14:16:10.765Z,5.25
2023-05-09T14:18:40.150Z,7.03
2023-05-09T14:21:08.198Z,91.75
2023-05-09T14:23:36.575Z,4.82
2023-05-09T14:26:04.345Z,58.95
2023-05-09T14:28:32.914Z,6.38
2023-05-09T14:31:01.922Z,3.65
2023-05-09T14:33:30.626Z,4.18
2023-05-09T14:35:58.935Z,4.53
2023-05-09T14:38:27.750Z,3.88
2023-05-09T14:40:56.427Z,6.70
2023-05-09T14:43:24.969Z,5.95
2023-05-09T14:45:52.794Z,3.60
2023-05-09T14:48:21.375Z,4.15
2023-05-09T14:50:50.154Z,4.55
2023-05-09T14:53:18.799Z,7.57
2023-05-09T14:55:47.126Z,4.25
2023-05-09T14:58:16.308Z,4.88
2023-05-09T15:00:47.961Z,8.65
2023-05-09T15:03:16.520Z,4.33
2023-05-09T15:05:45.224Z,3.53
2023-05-09T15:08:14.577Z,4.00
2023-05-09T15:10:42.901Z,5.30
2023-05-09T15:13:11.942Z,10.23
2023-05-09T15:15:40.981Z,5.47
2023-05-09T15:18:10.596Z,14.50
2023-05-09T15:20:38.906Z,13.95
2023-05-09T15:23:08.105Z,5.00
2023-05-09T15:25:36.292Z,2.67
2023-05-09T15:28:05.111Z,3.33
2023-05-09T15:30:34.862Z,9.20
2023-05-09T15:33:04.623Z,6.13
2023-05-09T15:35:32.932Z,7.18
2023-05-09T15:38:00.814Z,8.05
2023-05-09T15:40:29.344Z,5.68
2023-05-09T15:42:58.025Z,2.92
2023-05-09T15:45:39.265Z,5.25
2023-05-09T15:48:07.755Z,4.63
2023-05-09T15:50:35.927Z,4.32
2023-05-09T15:53:06.409Z,5.93
2023-05-09T15:55:35.051Z,2.38
2023-05-09T15:58:03.376Z,5.82
2023-05-09T16:00:31.428Z,2.67
2023-05-09T16:03:00.053Z,4.75
2023-05-09T16:05:27.975Z,5.93
2023-05-09T16:07:56.482Z,3.17
2023-05-09T16:10:24.252Z,4.97
2023-05-09T16:12:53.050Z,2.90
2023-05-09T16:15:21.505Z,6.40
2023-05-09T16:17:49.506Z,5.63
2023-05-09T16:20:17.485Z,2.70
2023-05-09T16:22:45.883Z,3.63
2023-05-09T16:25:14.489Z,2.60
2023-05-09T16:27:45.999Z,11.13
2023-05-09T16:30:14.996Z,6.75
2023-05-09T16:32:43.419Z,5.78
2023-05-09T16:35:11.302Z,4.85
2023-05-09T16:37:40.050Z,3.50
2023-05-09T16:40:08.668Z,4.25
2023-05-09T16:42:37.472Z,4.95
2023-05-09T16:45:06.855Z,6.45
2023-05-09T16:47:35.515Z,5.15
2023-05-09T16:50:05.363Z,4.72
2023-05-09T16:52:33.857Z,6.03
2023-05-09T16:55:01.841Z,4.35
2023-05-09T16:57:30.361Z,3.50
2023-05-09T16:59:58.789Z,4.28
2023-05-09T17:02:26.905Z,7.47
2023-05-09T17:04:55.320Z,7.70
2023-05-09T17:07:23.940Z,5.07
2023-05-09T17:09:51.817Z,4.38
2023-05-09T17:12:20.763Z,3.88
2023-05-09T17:14:48.843Z,9.15
2023-05-09T17:17:17.852Z,6.95
2023-05-09T17:19:45.947Z,5.22
2023-05-09T17:22:14.036Z,4.32
2023-05-09T17:24:42.035Z,4.00
2023-05-09T17:27:11.701Z,5.28
2023-05-09T17:29:39.649Z,6.60
2023-05-09T17:32:08.026Z,11.18
2023-05-09T17:34:36.510Z,7.00
2023-05-09T17:37:06.248Z,6.32
2023-05-09T17:39:34.801Z,5.20
2023-05-09T17:42:02.832Z,8.55
2023-05-09T17:44:31.318Z,4.13
2023-05-09T17:47:01.727Z,5.93
2023-05-09T17:49:30.266Z,11.43
2023-05-09T17:51:58.284Z,6.57
2023-05-09T17:54:26.752Z,9.32
2023-05-09T17:56:59.417Z,7.15
2023-05-09T17:59:28.988Z,9.43
2023-05-09T18:01:57.254Z,18.83
2023-05-09T18:04:26.207Z,5.10
2023-05-09T18:06:54.698Z,6.20
2023-05-09T18:09:24.432Z,6.28
2023-05-09T18:11:53.080Z,6.20
2023-05-09T18:14:22.314Z,8.02
2023-05-09T18:16:51.757Z,5.78
2023-05-09T18:19:20.375Z,7.60
2023-05-09T18:21:48.767Z,4.65
2023-05-09T18:24:17.186Z,3.85
2023-05-09T18:26:44.932Z,7.18
2023-05-09T18:29:14.389Z,4.32
2023-05-09T18:31:43.270Z,5.03
2023-05-09T18:34:12.411Z,6.35
2023-05-09T18:36:40.230Z,7.68
2023-05-09T18:39:09.317Z,7.00
2023-05-09T18:41:37.580Z,7.55
2023-05-09T18:44:06.188Z,7.20
2023-05-09T18:46:34.144Z,9.15
2023-05-09T18:49:05.860Z,5.70
2023-05-09T18:51:34.302Z,5.53
2023-05-09T18:54:03.048Z,13.10
2023-05-09T18:56:31.049Z,10.23
2023-05-09T18:58:59.363Z,5.20
2023-05-09T19:01:27.106Z,12.00
2023-05-09T19:03:56.380Z,13.10
2023-05-09T19:06:27.513Z,6.20
2023-05-09T19:08:55.899Z,4.63
2023-05-09T19:11:24.366Z,5.60
2023-05-09T19:13:53.676Z,40.28
2023-05-09T19:16:23.380Z,8.13
2023-05-09T19:18:54.546Z,9.52
2023-05-09T19:21:23.445Z,10.60
2023-05-09T19:23:52.801Z,7.97
2023-05-09T19:26:23.593Z,8.00
2023-05-09T19:29:00.093Z,12.60
2023-05-09T19:31:32.948Z,15.93
2023-05-09T19:34:04.570Z,33.67
2023-05-09T19:36:33.977Z,16.15
2023-05-09T19:39:02.753Z,12.48
2023-05-09T19:41:30.677Z,18.30
2023-05-09T19:43:59.836Z,13.52
2023-05-09T19:46:28.707Z,12.80
2023-05-09T19:48:58.589Z,11.20
2023-05-09T19:51:28.620Z,12.88
2023-05-09T19:53:57.822Z,9.23
2023-05-09T19:56:26.265Z,18.70
2023-05-09T19:58:55.683Z,12.40
2023-05-09T20:01:23.764Z,10.82
2023-05-09T20:03:53.680Z,11.90
2023-05-09T20:06:36.052Z,12.50
2023-05-09T20:09:05.281Z,15.38
2023-05-09T20:11:33.285Z,14.57
2023-05-09T20:14:02.013Z,11.88
2023-05-09T20:16:30.022Z,10.57
2023-05-09T20:18:59.620Z,11.98
2023-05-09T20:21:28.189Z,12.85
2023-05-09T20:23:57.065Z,11.15
2023-05-09T20:26:26.484Z,14.63
2023-05-09T20:29:01.741Z,14.43
2023-05-09T20:31:29.684Z,14.57
2023-05-09T20:33:58.636Z,11.80
2023-05-09T20:36:28.311Z,15.43
2023-05-09T20:38:57.664Z,16.80
2023-05-09T20:41:26.197Z,15.40
2023-05-09T20:43:54.808Z,11.63
2023-05-09T20:46:25.132Z,12.45
2023-05-09T20:48:54.831Z,15.70
2023-05-09T20:51:23.368Z,15.02
2023-05-09T20:53:51.749Z,15.32
2023-05-09T20:56:20.259Z,15.02
2023-05-09T20:58:49.018Z,16.42
2023-05-09T21:01:17.496Z,13.98
2023-05-09T21:03:45.942Z,26.48
2023-05-09T21:06:13.910Z,25.75
2023-05-09T21:08:43.037Z,26.35
2023-05-09T21:11:11.455Z,37.95
2023-05-09T21:13:40.044Z,30.25
2023-05-09T21:16:08.813Z,35.30
2023-05-09T21:18:36.813Z,38.20
2023-05-09T21:21:08.530Z,32.25
2023-05-09T21:23:36.910Z,29.00
2023-05-09T21:26:05.653Z,29.23
2023-05-09T21:28:34.846Z,13.88
2023-05-09T21:31:02.700Z,17.95
2023-05-09T21:33:31.351Z,16.55
2023-05-09T21:35:59.930Z,22.65
2023-05-09T21:38:28.145Z,20.98
2023-05-09T21:40:56.118Z,23.35
2023-05-09T21:43:24.184Z,23.95
2023-05-09T21:45:52.506Z,15.88
2023-05-09T21:48:20.900Z,19.70
2023-05-09T21:50:48.830Z,22.35
2023-05-09T21:53:17.570Z,18.60
2023-05-09T21:55:45.743Z,45.75
2023-05-09T21:58:14.001Z,48.85
2023-05-09T22:00:41.665Z,82.15
2023-05-09T22:03:09.862Z,24.48
2023-05-09T22:05:37.379Z,20.95
2023-05-09T22:08:05.840Z,47.47
2023-05-09T22:10:34.331Z,46.22
2023-05-09T22:13:02.235Z,16.42
2023-05-09T22:15:29.836Z,18.38
2023-05-09T22:17:58.254Z,14.82
2023-05-09T22:20:26.820Z,20.00
2023-05-09T22:22:54.660Z,14.73
2023-05-09T22:25:22.691Z,13.10
2023-05-09T22:27:51.213Z,40.75
2023-05-09T22:30:19.136Z,60.83
2023-05-09T22:32:47.272Z,34.50
2023-05-09T22:35:14.840Z,54.47
2023-05-09T22:37:43.449Z,40.53
2023-05-09T22:40:12.202Z,26.42
2023-05-09T22:42:40.108Z,21.67
2023-05-09T22:45:19.509Z,40.33
2023-05-09T22:47:48.096Z,39.35
2023-05-09T22:50:15.964Z,32.45
2023-05-09T22:52:44.126Z,37.35
2023-05-09T22:55:12.214Z,28.83
2023-05-09T22:57:41.696Z,23.65
2023-05-09T23:00:09.788Z,18.42
2023-05-09T23:02:37.672Z,33.40
2023-05-09T23:05:06.640Z,30.27
2023-05-09T23:07:35.242Z,25.27
2023-05-09T23:10:02.939Z,18.63
2023-05-09T23:12:30.950Z,27.98
2023-05-09T23:14:58.517Z,20.98
2023-05-09T23:17:26.465Z,24.63
2023-05-09T23:19:54.040Z,20.13
2023-05-09T23:22:21.985Z,16.98
2023-05-09T23:24:49.672Z,21.67
2023-05-09T23:27:18.253Z,23.90
2023-05-09T23:29:46.229Z,22.23
2023-05-09T23:32:14.379Z,23.02
2023-05-09T23:34:41.991Z,16.70
2023-05-09T23:37:10.370Z,17.77
2023-05-09T23:39:38.086Z,21.00
2023-05-09T23:42:06.012Z,18.38
2023-05-09T23:44:33.546Z,17.13
2023-05-09T23:47:02.300Z,15.32
2023-05-09T23:49:30.022Z,15.45
2023-05-09T23:51:57.821Z,17.30
2023-05-09T23:54:25.485Z,17.48
2023-05-09T23:56:53.544Z,14.85
2023-05-09T23:59:21.137Z,20.35
